This is the latest recevied weather packets stored in our database for station/object PY2UEP-1. If no packets are shown the sender has not sent any weather packets the latest 10 day(s).
| Time | Temp. | Humidity | Pressure | Rain* | Wind** | Luminosity | Snow |
|---|---|---|---|---|---|---|---|
| 1788009903 | 29.44° C | 47% | 1015.8 hPa | 0 mm | - | - | - |
| 1788009603 | 29.44° C | 48% | 1015.6 hPa | 0 mm | - | - | - |
| 1788009305 | 29.44° C | 49% | 1015.7 hPa | 0 mm | - | - | - |
| 1788009003 | 29.44° C | 49% | 1015.6 hPa | 0 mm | - | - | - |
| 1788008703 | 28.89° C | 50% | 1015.5 hPa | 0 mm | - | - | - |
| 1788008403 | 28.33° C | 50% | 1015.6 hPa | 0 mm | - | - | - |
| 1788008103 | 28.33° C | 51% | 1015.8 hPa | 0 mm | - | - | - |
| 1788007803 | 28.33° C | 51% | 1015.6 hPa | 0 mm | - | - | - |
| 1788007503 | 28.33° C | 52% | 1015.5 hPa | 0 mm | - | - | - |
| 1788007203 | 27.78° C | 53% | 1015.6 hPa | 0 mm | - | - | - |
| 1788006903 | 27.78° C | 53% | 1015.6 hPa | 0 mm | - | - | - |
| 1788006603 | 27.22° C | 55% | 1015.7 hPa | 0 mm | - | - | - |
| 1788006303 | 26.67° C | 59% | 1015.7 hPa | 0 mm | - | - | - |
| 1788006003 | 26.11° C | 60% | 1015.8 hPa | 0 mm | - | - | - |
| 1788005703 | 25.56° C | 61% | 1015.6 hPa | 0 mm | - | - | - |
| 1788005403 | 25° C | 63% | 1015.7 hPa | 0 mm | - | - | - |
| 1788005103 | 25° C | 64% | 1015.7 hPa | 0 mm | - | - | - |
| 1788004803 | 24.44° C | 66% | 1015.5 hPa | 0 mm | - | - | - |
| 1788004503 | 23.89° C | 66% | 1015.4 hPa | 0 mm | - | - | - |
| 1788004212 | 23.89° C | 66% | 1015.4 hPa | 0 mm | - | - | - |
| 1788003903 | 23.89° C | 64% | 1015.5 hPa | 0 mm | - | - | - |
| 1788003603 | 24.44° C | 64% | 1015.5 hPa | 0 mm | - | - | - |
| 1788003303 | 24.44° C | 64% | 1015.5 hPa | 0 mm | - | - | - |
| 1788003003 | 24.44° C | 64% | 1015.6 hPa | 0 mm | - | - | - |
| 1788002703 | 24.44° C | 63% | 1015.6 hPa | 0 mm | - | - | - |
* Rain since midnight (hover to see other rain measurements)
** Current wind speed in m/s (hover to see current wind gust speed)